Belleville, AR

3:38 PM CDT on April 25, 2015 (GMT -0500)
Skyline Weather Station | | Change Station
CLOSE
Current Station
Personal Weather Station
Location: Russellville, AR
Elevation: 710 ft
Nearby Weather Stations
Active Advisory: Lake Wind Advisory

Elev 710 ft 35.27 °N, 93.17 °W | Updated 3 seconds ago

Clear
Clear
80.6 °F
Feels Like 81 °F
N
3.0
Wind Variable Wind from NW
Gusts 14.0 mph

Today
High -- | Low -- °F
--% Chance of Precip.
Yesterday
High -- | Low -- °F
Precip. -- in
6:29 AM 7:54 PM
Waxing Crescent, 49% visible
Pressure 29.56 in
Visibility 10.0 miles
Clouds Clear
Heat Index 81 °F
Dew Point 57 °F
Humidity 45%
Rainfall 0.00 in
Snow Depth Not available.
UV 9 out of 12
Pollen 9.00 out of 12
Air Quality Not available.
Flu Activity Sporadic
METAR KRUE 251953Z AUTO 27010G17KT 10SM CLR 27/13 A2957 RMK AO2 SLP008 T02720128 $

More Conditions Fewer Conditions

Pressure 29.56 in
Visibility 10.0 miles
Clouds Clear
Heat Index 81 °F
Dew Point 57 °F
Humidity 45%
Rainfall 0.00 in
Snow Depth Not available.
UV 9 out of 12
Pollen 9.00 out of 12
Air Quality Not available.
Flu Activity Sporadic
METAR KRUE 251953Z AUTO 27010G17KT 10SM CLR 27/13 A2957 RMK AO2 SLP008 T02720128 $

More Conditions Fewer Conditions

10-Day Weather Forecast

Almanac

Astronomy

Apr. 25, 2015 Rise Set
Actual Time
Civil Twilight
Nautical Twilight
Astronomical Twilight
Moon
Length of Visible Light
Length of Day
Tomorrow will be .
, % of the Moon is Illuminated

Today's Extremes

State Highs State Lows

Community

WunderPhotos

Upload Photos

1,816,798 photos uploaded!

WunderBlogs® & News

Nearby

Air Quality

  Air Quality AQ Index Pollutant
Not available.

Snow Depth

Station Depth Elevation

Earthquake Activity

City Distance Mag. Time & Date
Minimum magnitude displayed is 2.5.

Coastal Water Temperatures

Place Temperature

Stations

Nearby Weather Stations

Station Location Temp. Windchill Dew Point Humidity Wind Precip. Elev Updated Type
                   
Lake Wind Advisory
Statement as of 3:25 AM CDT on April 25, 2015

... Lake Wind Advisory in effect from 10 am this morning to 7 PM
CDT this evening...

The National Weather Service in Little Rock has issued a lake
Wind Advisory... which is in effect from 10 am this morning to
7 PM CDT this evening.

* Event: gusty southwest winds of 15 to 25 mph... with gusts over
30 mph.

* Areas affected: most of Arkansas.

* Timing: gusty winds will increase in speed this morning... and
will continue through the afternoon hours. The winds will
gradually decrease after sunset.

* Impacts: the breezy conditions will create hazardous conditions
on area bodies of water.

Precautionary/preparedness actions...

A lake Wind Advisory indicates that winds will cause rough chop
on area lakes. Small boats will be especially prone to capsizing.



58